»·PEaware :: N6092U KEMT-KCRQ

N6092U :: KEMT-KCRQ

FLIGHT INFORMATION

Flight Status: Arrived
Operator: Privately registered:
United States
More flights under this callsign
Pilot: Hendrik S. (17810)
Aircraft: PIPER PA-28 CHEROKEE ARCHER
(P28A)
More flights by this aircraft type
Origin: KEMT El Monte
United States
Destination: KCRQ McClellan-Palomar
United States
More flights between these airports :: More routes between these airports
Route: +
File this flight plan on PilotEdge
Remarks:
Altitude:
(Current/Filed)
7,500ft
Speed:
(Current/Filed)
0kts
Departed: 21-Sep-19 02:49 PM
Arrived: 21-Sep-19 03:38 PM
Distance/Time
Traveled:
69nm/0:49
Distance/Time
To Go:
Arrived

Flight Plot

Page will automatically refresh every two minutes.

Flight plan parsing failed; only flown route is shown


Map Options




Map Legend


Flown Route
Filed Route
Departure Airport
Arrival Airport
Navaid (VOR, NDB)
Fix

Horizontal Profiles

Position Reports

Time Latitude Longitude Heading Altitude Ground
Speed
21-Sep-19 14:25 34.086052 -118.033305 25 293ft 0kts
21-Sep-19 14:26 34.086052 -118.033305 25 293ft 0kts
21-Sep-19 14:27 34.086052 -118.033305 25 293ft 0kts
21-Sep-19 14:28 34.086052 -118.033305 25 293ft 0kts
21-Sep-19 14:29 34.086052 -118.033305 25 293ft 0kts
21-Sep-19 14:30 34.086052 -118.033305 25 293ft 0kts
21-Sep-19 14:31 34.086052 -118.033305 25 293ft 0kts
21-Sep-19 14:32 34.086052 -118.033305 24 293ft 0kts
21-Sep-19 14:33 34.086052 -118.033305 24 293ft 0kts
21-Sep-19 14:34 34.086052 -118.033305 24 293ft 0kts
21-Sep-19 14:35 34.086052 -118.033305 24 293ft 0kts
21-Sep-19 14:36 34.086052 -118.033305 24 293ft 0kts
21-Sep-19 14:37 34.086052 -118.033305 24 293ft 0kts
21-Sep-19 14:38 34.086052 -118.033305 24 293ft 0kts
21-Sep-19 14:39 34.086052 -118.033305 24 293ft 0kts
21-Sep-19 14:40 34.086052 -118.033305 24 293ft 0kts
21-Sep-19 14:41 34.086052 -118.033305 24 293ft 0kts
21-Sep-19 14:42 34.086512 -118.033796 318 293ft 8kts
21-Sep-19 14:43 34.090503 -118.031565 27 293ft 0kts
21-Sep-19 14:44 34.090503 -118.031565 27 293ft 0kts
21-Sep-19 14:45 34.090502 -118.031565 27 293ft 0kts
21-Sep-19 14:46 34.090503 -118.031565 27 293ft 0kts
21-Sep-19 14:47 34.090800 -118.031638 289 293ft 0kts
21-Sep-19 14:48 34.087901 -118.033752 204 293ft 60kts
21-Sep-19 14:49 34.068643 -118.043877 189 962ft 77kts
21-Sep-19 14:50 34.058243 -118.021078 106 1722ft 87kts
21-Sep-19 14:51 34.052240 -117.993016 106 2560ft 87kts
21-Sep-19 14:52 34.046793 -117.964236 98 3369ft 88kts
21-Sep-19 14:53 34.041986 -117.935428 106 4154ft 87kts
21-Sep-19 14:54 34.032385 -117.908660 119 4969ft 86kts
21-Sep-19 14:55 34.018780 -117.882614 122 5546ft 110kts
21-Sep-19 14:56 34.003052 -117.850479 115 5486ft 106kts
21-Sep-19 14:57 33.989849 -117.818401 110 5780ft 105kts
21-Sep-19 14:58 33.975800 -117.786708 119 6426ft 107kts
21-Sep-19 14:59 33.959963 -117.759534 124 7218ft 97kts
21-Sep-19 15:00 33.942255 -117.734101 130 7766ft 108kts
21-Sep-19 15:01 33.926491 -117.702147 114 7510ft 118kts
21-Sep-19 15:02 33.912725 -117.665754 112 7423ft 114kts
21-Sep-19 15:03 33.899659 -117.631666 112 7433ft 113kts
21-Sep-19 15:04 33.886558 -117.596987 112 7432ft 113kts
21-Sep-19 15:05 33.873420 -117.562199 112 7432ft 113kts
21-Sep-19 15:06 33.860310 -117.527522 112 7434ft 114kts
21-Sep-19 15:07 33.847208 -117.492871 112 7432ft 113kts
21-Sep-19 15:08 33.834057 -117.458107 112 7432ft 113kts
21-Sep-19 15:09 33.820786 -117.423568 120 7429ft 114kts
21-Sep-19 15:10 33.795908 -117.399290 140 7432ft 115kts
21-Sep-19 15:11 33.770325 -117.376210 140 7432ft 114kts
21-Sep-19 15:12 33.744817 -117.353219 140 7432ft 114kts
21-Sep-19 15:13 33.719286 -117.330194 140 7433ft 114kts
21-Sep-19 15:14 33.693695 -117.307115 140 7433ft 115kts
21-Sep-19 15:15 33.668154 -117.284082 140 7433ft 115kts
21-Sep-19 15:16 33.642229 -117.260691 140 7296ft 120kts
21-Sep-19 15:17 33.616558 -117.237531 140 6791ft 113kts
21-Sep-19 15:18 33.591378 -117.214872 140 6291ft 113kts
21-Sep-19 15:19 33.564361 -117.196084 163 5789ft 115kts
21-Sep-19 15:20 33.533269 -117.186460 163 5291ft 116kts
21-Sep-19 15:21 33.502001 -117.176611 163 4792ft 116kts
21-Sep-19 15:22 33.470767 -117.166417 163 4292ft 116kts
21-Sep-19 15:23 33.439422 -117.156060 163 3791ft 116kts
21-Sep-19 15:24 33.407329 -117.154959 184 3551ft 118kts
21-Sep-19 15:25 33.374364 -117.158248 184 3292ft 115kts
21-Sep-19 15:26 33.343007 -117.161208 184 2791ft 112kts
21-Sep-19 15:27 33.313544 -117.170311 206 2285ft 109kts
21-Sep-19 15:28 33.286501 -117.186231 206 1785ft 106kts
21-Sep-19 15:29 33.261551 -117.200901 206 1529ft 85kts
21-Sep-19 15:30 33.238962 -117.213761 192 1531ft 96kts
21-Sep-19 15:31 33.213959 -117.214762 181 1532ft 85kts
21-Sep-19 15:32 33.190912 -117.215295 180 1552ft 79kts
21-Sep-19 15:33 33.167988 -117.217545 185 1631ft 87kts
21-Sep-19 15:34 33.144064 -117.220183 184 1580ft 86kts
21-Sep-19 15:35 33.134341 -117.242546 262 1100ft 83kts
21-Sep-19 15:36 33.130198 -117.268133 260 446ft 78kts
21-Sep-19 15:37 33.127154 -117.282954 189 334ft 10kts
21-Sep-19 15:38 33.127131 -117.281986 80 334ft 13kts
21-Sep-19 15:39 33.126211 -117.277210 244 334ft 13kts
21-Sep-19 15:40 33.126467 -117.277612 353 334ft 0kts
21-Sep-19 15:41 33.126467 -117.277612 353 334ft 0kts
21-Sep-19 15:42 33.126467 -117.277612 353 334ft 0kts
21-Sep-19 15:43 33.126467 -117.277612 353 334ft 0kts
21-Sep-19 15:44 33.126467 -117.277612 353 334ft 0kts
21-Sep-19 15:45 33.126467 -117.277612 353 334ft 0kts
21-Sep-19 15:46 33.126467 -117.277612 353 334ft 0kts
21-Sep-19 15:47 33.126467 -117.277612 353 334ft 0kts
21-Sep-19 15:48 33.126467 -117.277612 353 334ft 0kts
21-Sep-19 15:49 33.126467 -117.277612 353 334ft 0kts
21-Sep-19 15:50 33.126467 -117.277612 353 334ft 0kts

Navigation Log

Ident Type
Flight plan parsing failed, navigation log unavailable